createdAt,value
2019-03-19T00:00:17.910Z,4.40
2019-03-19T00:01:17.896Z,4.40
2019-03-19T00:02:17.890Z,4.50
2019-03-19T00:03:17.871Z,4.30
2019-03-19T00:04:17.862Z,4.30
2019-03-19T00:05:17.851Z,3.90
2019-03-19T00:06:17.835Z,4.20
2019-03-19T00:07:17.828Z,3.90
2019-03-19T00:08:17.816Z,4.80
2019-03-19T00:09:17.803Z,4.80
2019-03-19T00:10:17.789Z,4.50
2019-03-19T00:11:17.782Z,4.10
2019-03-19T00:12:17.764Z,4.50
2019-03-19T00:13:17.756Z,4.60
2019-03-19T00:14:17.748Z,4.50
2019-03-19T00:15:17.730Z,5.00
2019-03-19T00:16:17.728Z,4.60
2019-03-19T00:17:17.711Z,4.60
2019-03-19T00:18:17.701Z,4.60
2019-03-19T00:19:17.691Z,4.60
2019-03-19T00:20:17.682Z,4.70
2019-03-19T00:21:17.666Z,4.30
2019-03-19T00:22:17.654Z,4.40
2019-03-19T00:23:17.652Z,4.30
2019-03-19T00:24:17.638Z,4.60
2019-03-19T00:25:17.619Z,4.00
2019-03-19T00:26:17.615Z,4.20
2019-03-19T00:27:17.596Z,4.40
2019-03-19T00:28:17.589Z,4.50
2019-03-19T00:29:17.569Z,4.30
2019-03-19T00:30:17.567Z,4.50
2019-03-19T00:31:17.562Z,4.30
2019-03-19T00:32:17.538Z,4.20
2019-03-19T00:33:17.536Z,3.90
2019-03-19T00:34:17.527Z,4.40
2019-03-19T00:35:17.503Z,5.00
2019-03-19T00:36:17.703Z,4.70
2019-03-19T00:37:17.481Z,4.80
2019-03-19T00:38:17.469Z,4.40
2019-03-19T00:39:17.458Z,5.10
2019-03-19T00:40:17.445Z,4.40
2019-03-19T00:41:17.475Z,4.20
2019-03-19T00:42:17.422Z,5.00
2019-03-19T00:43:17.411Z,4.30
2019-03-19T00:44:17.400Z,4.30
2019-03-19T00:45:17.395Z,4.50
2019-03-19T00:46:17.380Z,4.80
2019-03-19T00:47:17.365Z,4.50
2019-03-19T00:48:17.361Z,4.90
2019-03-19T00:49:17.346Z,4.80
2019-03-19T00:50:17.330Z,5.20
2019-03-19T00:51:17.316Z,4.70
2019-03-19T00:52:17.304Z,4.80
2019-03-19T00:53:17.297Z,4.90
2019-03-19T00:54:17.288Z,4.80
2019-03-19T00:55:17.273Z,5.20
2019-03-19T00:56:17.263Z,5.20
2019-03-19T00:57:17.246Z,4.60
2019-03-19T00:58:17.239Z,4.40
2019-03-19T00:59:17.223Z,5.10
2019-03-19T01:00:17.215Z,4.70
2019-03-19T01:01:17.200Z,4.80
2019-03-19T01:02:17.192Z,4.30
2019-03-19T01:03:17.179Z,4.60
2019-03-19T01:04:17.169Z,5.20
2019-03-19T01:05:17.157Z,4.60
2019-03-19T01:06:17.143Z,4.30
2019-03-19T01:07:17.133Z,4.70
2019-03-19T01:08:17.122Z,4.70
2019-03-19T01:09:17.113Z,4.50
2019-03-19T01:10:17.801Z,4.50
2019-03-19T01:11:17.133Z,4.30
2019-03-19T01:12:17.077Z,4.30
2019-03-19T01:13:17.075Z,4.40
2019-03-19T01:14:17.055Z,4.20
2019-03-19T01:15:17.048Z,4.90
2019-03-19T01:16:17.035Z,4.30
2019-03-19T01:17:17.029Z,4.30
2019-03-19T01:18:17.010Z,4.10
2019-03-19T01:19:16.999Z,5.00
2019-03-19T01:20:16.988Z,4.30
2019-03-19T01:21:16.973Z,4.40
2019-03-19T01:22:16.959Z,4.80
2019-03-19T01:23:16.952Z,4.30
2019-03-19T01:24:16.942Z,4.80
2019-03-19T01:25:16.928Z,4.30
2019-03-19T01:26:16.919Z,4.80
2019-03-19T01:27:16.894Z,4.90
2019-03-19T01:28:16.890Z,4.90
2019-03-19T01:29:16.880Z,4.80
2019-03-19T01:30:16.867Z,4.60
2019-03-19T01:31:16.861Z,4.10
2019-03-19T01:32:16.843Z,4.40
2019-03-19T01:33:16.839Z,4.30
2019-03-19T01:34:16.818Z,4.70
2019-03-19T01:35:16.807Z,4.20
2019-03-19T01:36:16.794Z,4.90
2019-03-19T01:37:16.783Z,4.80
2019-03-19T01:38:16.775Z,4.60
2019-03-19T01:39:16.762Z,4.40
2019-03-19T01:40:16.748Z,5.30
2019-03-19T01:41:16.741Z,4.70
2019-03-19T01:42:16.723Z,5.00
2019-03-19T01:43:16.715Z,4.80
2019-03-19T01:44:16.701Z,4.90
2019-03-19T01:45:16.688Z,4.10
2019-03-19T01:46:16.672Z,5.40
2019-03-19T01:47:16.679Z,5.20
2019-03-19T01:48:16.658Z,5.30
2019-03-19T01:49:16.645Z,4.70
2019-03-19T01:50:16.632Z,5.00
2019-03-19T01:51:16.618Z,4.60
2019-03-19T01:52:16.603Z,4.80
2019-03-19T01:53:16.593Z,4.90
2019-03-19T01:54:16.584Z,5.20
2019-03-19T01:55:16.576Z,4.60
2019-03-19T01:56:16.560Z,4.60
2019-03-19T01:57:16.550Z,5.00
2019-03-19T01:58:16.536Z,5.10
2019-03-19T01:59:16.522Z,4.40
2019-03-19T02:00:16.513Z,4.80
2019-03-19T02:01:16.509Z,5.40
2019-03-19T02:02:16.489Z,4.70
2019-03-19T02:03:16.473Z,4.60
2019-03-19T02:04:16.464Z,4.80
2019-03-19T02:05:16.467Z,4.90
2019-03-19T02:06:16.438Z,4.30
2019-03-19T02:07:16.430Z,5.00
2019-03-19T02:08:16.426Z,5.30
2019-03-19T02:09:16.406Z,5.00
2019-03-19T02:10:16.395Z,5.00
2019-03-19T02:11:16.391Z,4.40
2019-03-19T02:12:16.368Z,4.90
2019-03-19T02:13:16.357Z,4.60
2019-03-19T02:14:16.342Z,4.60
2019-03-19T02:15:16.347Z,4.60
2019-03-19T02:16:16.324Z,4.50
2019-03-19T02:17:16.312Z,4.90
2019-03-19T02:18:16.294Z,5.50
2019-03-19T02:19:16.287Z,4.50
2019-03-19T02:20:16.276Z,4.90
2019-03-19T02:21:16.264Z,4.70
2019-03-19T02:22:16.251Z,4.80
2019-03-19T02:23:16.241Z,5.40
2019-03-19T02:24:16.234Z,5.00
2019-03-19T02:25:16.216Z,5.00
2019-03-19T02:26:17.047Z,5.10
2019-03-19T02:27:16.191Z,4.90
2019-03-19T02:28:16.180Z,5.20
2019-03-19T02:29:16.171Z,5.30
2019-03-19T02:30:16.198Z,4.90
2019-03-19T02:31:16.147Z,4.90
2019-03-19T02:32:16.130Z,5.20
2019-03-19T02:33:16.123Z,4.00
2019-03-19T02:34:16.111Z,5.20
2019-03-19T02:35:16.093Z,4.60
2019-03-19T02:36:16.083Z,4.70
2019-03-19T02:37:16.073Z,5.00
2019-03-19T02:38:16.056Z,5.60
2019-03-19T02:39:16.051Z,4.80
2019-03-19T02:40:16.041Z,4.90
2019-03-19T02:41:16.022Z,5.10
2019-03-19T02:42:16.023Z,5.30
2019-03-19T02:43:15.996Z,4.80
2019-03-19T02:44:15.984Z,4.60
2019-03-19T02:45:15.978Z,5.80
2019-03-19T02:46:15.960Z,6.20
2019-03-19T02:47:15.967Z,5.00
2019-03-19T02:48:15.959Z,5.10
2019-03-19T02:49:15.926Z,5.40
2019-03-19T02:50:15.910Z,4.70
2019-03-19T02:51:15.904Z,4.70
2019-03-19T02:52:15.924Z,4.60
2019-03-19T02:53:15.879Z,5.40
2019-03-19T02:54:15.865Z,4.80
2019-03-19T02:55:15.860Z,5.10
2019-03-19T02:56:31.368Z,5.10
2019-03-19T02:57:15.865Z,5.40
2019-03-19T02:58:15.815Z,5.00
2019-03-19T02:59:15.805Z,4.80
2019-03-19T03:00:15.792Z,4.80
2019-03-19T03:01:15.779Z,4.70
2019-03-19T03:02:15.796Z,5.10
2019-03-19T03:03:15.751Z,5.30
2019-03-19T03:04:15.746Z,5.50
2019-03-19T03:05:15.734Z,5.30
2019-03-19T03:06:15.724Z,5.10
2019-03-19T03:07:15.700Z,5.20
2019-03-19T03:08:15.696Z,5.40
2019-03-19T03:09:15.682Z,5.00
2019-03-19T03:10:15.686Z,4.90
2019-03-19T03:11:15.668Z,4.80
2019-03-19T03:12:15.648Z,5.10
2019-03-19T03:13:15.644Z,5.30
2019-03-19T03:14:15.625Z,4.50
2019-03-19T03:15:15.631Z,5.00
2019-03-19T03:16:15.606Z,4.90
2019-03-19T03:17:15.585Z,4.90
2019-03-19T03:18:15.578Z,4.50
2019-03-19T03:19:15.560Z,5.10
2019-03-19T03:20:15.559Z,4.70
2019-03-19T03:21:15.537Z,4.80
2019-03-19T03:22:15.527Z,4.60
2019-03-19T03:23:15.515Z,4.40
2019-03-19T03:24:15.503Z,4.80
2019-03-19T03:25:15.506Z,4.10
2019-03-19T03:26:15.480Z,4.70
2019-03-19T03:27:15.467Z,4.60
2019-03-19T03:28:15.460Z,5.00
2019-03-19T03:29:15.444Z,4.50
2019-03-19T03:30:15.480Z,4.60
2019-03-19T03:31:15.432Z,4.20
2019-03-19T03:32:15.409Z,4.50
2019-03-19T03:33:15.397Z,4.90
2019-03-19T03:34:15.383Z,4.70
2019-03-19T03:35:15.406Z,4.60
2019-03-19T03:36:15.357Z,4.50
2019-03-19T03:37:15.347Z,4.70
2019-03-19T03:38:15.337Z,4.70
2019-03-19T03:39:15.322Z,4.60
2019-03-19T03:40:15.320Z,4.90
2019-03-19T03:41:15.291Z,4.80
2019-03-19T03:42:15.285Z,5.00
2019-03-19T03:43:15.273Z,4.60
2019-03-19T03:44:15.264Z,4.40
2019-03-19T03:45:15.256Z,4.60
2019-03-19T03:46:15.238Z,4.90
2019-03-19T03:47:15.231Z,4.80
2019-03-19T03:48:15.214Z,4.60
2019-03-19T03:49:15.202Z,4.40
2019-03-19T03:50:15.189Z,4.90
2019-03-19T03:51:15.179Z,4.30
2019-03-19T03:52:15.175Z,4.90
2019-03-19T03:53:15.153Z,4.80
2019-03-19T03:54:15.142Z,3.90
2019-03-19T03:55:15.132Z,4.60
2019-03-19T03:56:15.133Z,4.50
2019-03-19T03:57:15.125Z,5.20
2019-03-19T03:58:15.096Z,4.70
2019-03-19T03:59:15.080Z,4.70
2019-03-19T04:00:15.073Z,4.60
2019-03-19T04:01:15.056Z,4.70
2019-03-19T04:02:15.045Z,5.00
2019-03-19T04:03:15.034Z,4.40
2019-03-19T04:04:15.023Z,5.10
2019-03-19T04:05:15.019Z,4.40
2019-03-19T04:06:14.998Z,4.50
2019-03-19T04:07:14.987Z,4.60
2019-03-19T04:08:14.972Z,4.70
2019-03-19T04:09:14.963Z,5.50
2019-03-19T04:10:14.951Z,4.80
2019-03-19T04:11:14.935Z,4.10
2019-03-19T04:12:14.927Z,4.90
2019-03-19T04:13:14.926Z,3.90
2019-03-19T04:14:14.898Z,5.20
2019-03-19T04:15:14.890Z,4.70
2019-03-19T04:16:14.876Z,4.80
2019-03-19T04:17:14.867Z,4.40
2019-03-19T04:18:14.857Z,5.00
2019-03-19T04:19:14.867Z,4.90
2019-03-19T04:20:14.830Z,4.30
2019-03-19T04:21:14.815Z,4.80
2019-03-19T04:22:16.057Z,5.40
2019-03-19T04:23:14.799Z,4.90
2019-03-19T04:24:14.777Z,5.30
2019-03-19T04:25:14.762Z,5.50
2019-03-19T04:26:14.759Z,4.90
2019-03-19T04:27:16.416Z,4.90
2019-03-19T04:28:14.752Z,5.50
2019-03-19T04:29:14.721Z,4.90
2019-03-19T04:30:14.710Z,5.40
2019-03-19T04:31:14.700Z,5.20
2019-03-19T04:32:14.684Z,5.10
2019-03-19T04:33:14.668Z,5.40
2019-03-19T04:34:14.651Z,5.30
2019-03-19T04:35:14.659Z,5.40
2019-03-19T04:36:14.632Z,5.10
2019-03-19T04:37:14.618Z,4.60
2019-03-19T04:38:14.609Z,5.10
2019-03-19T04:39:14.593Z,4.90
2019-03-19T04:40:14.583Z,5.10
2019-03-19T04:41:14.586Z,5.20
2019-03-19T04:42:14.564Z,4.90
2019-03-19T04:43:14.560Z,4.70
2019-03-19T04:44:14.546Z,5.10
2019-03-19T04:45:14.523Z,4.80
2019-03-19T04:46:14.523Z,5.60
2019-03-19T04:47:14.498Z,5.10
2019-03-19T04:48:14.490Z,5.80
2019-03-19T04:49:14.488Z,5.00
2019-03-19T04:50:14.468Z,5.80
2019-03-19T04:51:14.449Z,5.00
2019-03-19T04:52:14.438Z,5.70
2019-03-19T04:53:14.432Z,5.00
2019-03-19T04:54:14.431Z,5.30
2019-03-19T04:55:14.401Z,5.20
2019-03-19T04:56:14.396Z,5.50
2019-03-19T04:57:14.376Z,5.20
2019-03-19T04:58:14.362Z,5.80
2019-03-19T04:59:14.362Z,5.20
2019-03-19T05:00:14.335Z,5.80
2019-03-19T05:01:14.328Z,5.20
2019-03-19T05:02:14.336Z,5.60
2019-03-19T05:03:14.304Z,5.60
2019-03-19T05:04:14.299Z,5.40
2019-03-19T05:05:14.276Z,5.60
2019-03-19T05:06:14.259Z,5.80
2019-03-19T05:07:14.254Z,5.60
2019-03-19T05:08:14.242Z,5.00
2019-03-19T05:09:14.229Z,6.20
2019-03-19T05:10:14.228Z,5.50
2019-03-19T05:11:14.203Z,5.70
2019-03-19T05:12:14.189Z,6.40
2019-03-19T05:13:14.184Z,5.50
2019-03-19T05:14:14.172Z,5.30
2019-03-19T05:15:14.158Z,5.30
2019-03-19T05:16:14.156Z,5.60
2019-03-19T05:17:14.133Z,5.30
2019-03-19T05:18:14.127Z,5.70
2019-03-19T05:19:14.101Z,5.50
2019-03-19T05:20:14.110Z,5.20
2019-03-19T05:21:14.090Z,5.20
2019-03-19T05:22:14.066Z,5.70
2019-03-19T05:23:14.050Z,5.80
2019-03-19T05:24:14.035Z,5.70
2019-03-19T05:25:14.062Z,5.70
2019-03-19T05:26:14.019Z,5.30
2019-03-19T05:27:14.136Z,5.30
2019-03-19T05:28:13.997Z,5.70
2019-03-19T05:29:13.991Z,5.60
2019-03-19T05:30:13.964Z,6.00
2019-03-19T05:31:13.959Z,5.10
2019-03-19T05:32:13.955Z,5.60
2019-03-19T05:33:13.946Z,5.70
2019-03-19T05:34:13.925Z,6.10
2019-03-19T05:35:13.909Z,4.90
2019-03-19T05:36:13.910Z,4.90
2019-03-19T05:37:13.896Z,5.40
2019-03-19T05:38:13.872Z,5.40
2019-03-19T05:39:13.862Z,5.50
2019-03-19T05:40:13.850Z,5.80
2019-03-19T05:41:13.837Z,5.20
2019-03-19T05:42:13.824Z,5.50
2019-03-19T05:43:13.807Z,5.40
2019-03-19T05:44:13.795Z,5.40
2019-03-19T05:45:13.794Z,5.90
2019-03-19T05:46:13.782Z,5.80
2019-03-19T05:47:13.762Z,5.50
2019-03-19T05:48:13.748Z,5.90
2019-03-19T05:49:13.737Z,5.80
2019-03-19T05:50:13.732Z,6.20
2019-03-19T05:51:15.696Z,5.60
2019-03-19T05:52:13.700Z,5.40
2019-03-19T05:53:13.691Z,5.30
2019-03-19T05:54:13.673Z,5.20
2019-03-19T05:55:13.677Z,6.00
2019-03-19T05:56:13.658Z,5.50
2019-03-19T05:57:13.637Z,5.80
2019-03-19T05:58:13.625Z,5.70
2019-03-19T05:59:13.612Z,4.90
2019-03-19T06:00:13.607Z,5.10
2019-03-19T06:01:13.586Z,5.80
2019-03-19T06:02:13.573Z,5.90
2019-03-19T06:03:13.569Z,6.00
2019-03-19T06:04:13.553Z,7.70
2019-03-19T06:05:13.540Z,9.10
2019-03-19T06:06:13.538Z,9.00
2019-03-19T06:07:13.512Z,9.00
2019-03-19T06:08:13.510Z,9.60
2019-03-19T06:09:13.489Z,9.70
2019-03-19T06:10:13.477Z,9.40
2019-03-19T06:11:13.468Z,9.30
2019-03-19T06:12:13.459Z,8.60
2019-03-19T06:13:13.442Z,6.50
2019-03-19T06:14:13.429Z,6.50
2019-03-19T06:15:13.420Z,6.90
2019-03-19T06:16:13.412Z,5.70
2019-03-19T06:17:13.397Z,5.10
2019-03-19T06:18:13.381Z,5.90
2019-03-19T06:19:13.367Z,5.30
2019-03-19T06:20:13.361Z,6.00
2019-03-19T06:21:13.341Z,5.80
2019-03-19T06:22:13.334Z,8.10
2019-03-19T06:23:13.322Z,8.40
2019-03-19T06:24:13.310Z,7.30
2019-03-19T06:25:13.307Z,7.50
2019-03-19T06:26:13.288Z,6.50
2019-03-19T06:27:13.278Z,5.60
2019-03-19T06:28:13.257Z,5.80
2019-03-19T06:29:13.247Z,5.70
2019-03-19T06:30:13.246Z,5.20
2019-03-19T06:31:13.226Z,6.40
2019-03-19T06:32:13.217Z,5.70
2019-03-19T06:33:13.204Z,5.30
2019-03-19T06:34:13.181Z,4.80
2019-03-19T06:35:13.185Z,5.10
2019-03-19T06:36:13.162Z,5.30
2019-03-19T06:37:13.161Z,5.20
2019-03-19T06:38:13.138Z,5.10
2019-03-19T06:39:13.126Z,5.20
2019-03-19T06:40:13.111Z,4.70
2019-03-19T06:41:13.100Z,5.10
2019-03-19T06:42:13.095Z,5.00
2019-03-19T06:43:13.082Z,5.00
2019-03-19T06:44:13.072Z,4.70
2019-03-19T06:45:13.057Z,5.30
2019-03-19T06:46:13.051Z,5.20
2019-03-19T06:47:13.049Z,4.40
2019-03-19T06:48:13.019Z,5.10
2019-03-19T06:49:13.022Z,4.20
2019-03-19T06:50:13.001Z,4.90
2019-03-19T06:51:12.986Z,5.00
2019-03-19T06:52:12.970Z,4.60
2019-03-19T06:53:12.967Z,5.10
2019-03-19T06:54:12.949Z,5.40
2019-03-19T06:55:12.963Z,4.70
2019-03-19T06:56:14.793Z,4.60
2019-03-19T06:57:12.916Z,5.10
2019-03-19T06:58:12.902Z,4.70
2019-03-19T06:59:12.890Z,4.60
2019-03-19T07:00:12.885Z,4.90
2019-03-19T07:01:12.868Z,5.00
2019-03-19T07:02:12.857Z,6.10
2019-03-19T07:03:12.867Z,5.80
2019-03-19T07:04:12.845Z,5.10
2019-03-19T07:05:12.833Z,4.60
2019-03-19T07:06:12.814Z,4.50
2019-03-19T07:07:12.803Z,5.70
2019-03-19T07:08:12.807Z,5.10
2019-03-19T07:09:12.783Z,4.50
2019-03-19T07:10:12.769Z,4.70
2019-03-19T07:11:12.769Z,4.80
2019-03-19T07:12:12.754Z,5.30
2019-03-19T07:13:12.740Z,5.10
2019-03-19T07:14:12.727Z,4.30
2019-03-19T07:15:12.719Z,4.60
2019-03-19T07:16:12.708Z,4.70
2019-03-19T07:17:12.701Z,4.30
2019-03-19T07:18:12.686Z,4.50
2019-03-19T07:19:12.678Z,5.00
2019-03-19T07:20:12.666Z,4.60
2019-03-19T07:21:12.662Z,4.60
2019-03-19T07:22:12.650Z,5.00
2019-03-19T07:23:12.655Z,4.90
2019-03-19T07:24:12.631Z,5.30
2019-03-19T07:25:12.619Z,5.10
2019-03-19T07:26:12.612Z,4.80
2019-03-19T07:27:12.607Z,4.90
2019-03-19T07:28:21.610Z,5.60
2019-03-19T07:29:12.582Z,4.90
2019-03-19T07:30:12.574Z,5.10
2019-03-19T07:31:12.563Z,4.50
2019-03-19T07:32:12.553Z,5.00
2019-03-19T07:33:12.540Z,4.70
2019-03-19T07:34:12.533Z,5.00
2019-03-19T07:35:12.527Z,5.10
2019-03-19T07:36:12.538Z,4.80
2019-03-19T07:37:12.510Z,4.60
2019-03-19T07:38:12.496Z,4.60
2019-03-19T07:39:12.498Z,4.40
2019-03-19T07:40:12.482Z,4.80
2019-03-19T07:41:12.475Z,5.00
2019-03-19T07:42:12.469Z,4.60
2019-03-19T07:43:12.455Z,4.50
2019-03-19T07:44:12.435Z,5.50
2019-03-19T07:45:12.507Z,4.30
2019-03-19T07:46:12.423Z,5.40
2019-03-19T07:47:12.420Z,5.20
2019-03-19T07:48:12.411Z,4.50
2019-03-19T07:49:12.400Z,4.60
2019-03-19T07:50:12.396Z,4.60
2019-03-19T07:51:12.378Z,5.10
2019-03-19T07:52:12.375Z,4.30
2019-03-19T07:53:12.366Z,5.00
2019-03-19T07:54:12.355Z,4.90
2019-03-19T07:55:12.389Z,4.70
2019-03-19T07:56:12.341Z,8.30
2019-03-19T07:57:12.334Z,5.90
2019-03-19T07:58:12.318Z,5.40
2019-03-19T07:59:12.315Z,5.00
2019-03-19T08:00:12.310Z,5.10
2019-03-19T08:01:12.287Z,4.70
2019-03-19T08:02:12.285Z,4.30
2019-03-19T08:03:16.373Z,4.60
2019-03-19T08:04:12.266Z,5.10
2019-03-19T08:05:12.261Z,4.60
2019-03-19T08:06:12.254Z,4.80
2019-03-19T08:07:12.242Z,5.20
2019-03-19T08:08:12.243Z,7.60
2019-03-19T08:09:12.225Z,6.60
2019-03-19T08:10:12.251Z,4.70
2019-03-19T08:11:13.136Z,4.90
2019-03-19T08:12:12.209Z,5.70
2019-03-19T08:13:12.196Z,5.10
2019-03-19T08:14:12.185Z,5.20
2019-03-19T08:15:12.178Z,5.10
2019-03-19T08:16:12.168Z,5.60
2019-03-19T08:17:12.165Z,4.80
2019-03-19T08:18:12.153Z,5.30
2019-03-19T08:19:12.146Z,4.60
2019-03-19T08:20:12.137Z,5.10
2019-03-19T08:21:12.149Z,5.50
2019-03-19T08:22:12.122Z,5.20
2019-03-19T08:23:12.120Z,5.00
2019-03-19T08:24:12.107Z,5.80
2019-03-19T08:25:12.107Z,22.40
2019-03-19T08:26:12.091Z,13.70
2019-03-19T08:27:12.081Z,7.20
2019-03-19T08:28:12.127Z,5.70
2019-03-19T08:29:12.061Z,5.80
2019-03-19T08:30:12.060Z,5.90
2019-03-19T08:31:12.048Z,5.20
2019-03-19T08:32:12.041Z,5.30
2019-03-19T08:33:12.035Z,5.60
2019-03-19T08:34:12.026Z,5.10
2019-03-19T08:35:12.017Z,5.50
2019-03-19T08:36:12.011Z,5.60
2019-03-19T08:37:12.004Z,5.30
2019-03-19T08:38:11.991Z,5.70
2019-03-19T08:39:11.985Z,5.60
2019-03-19T08:40:11.978Z,6.10
2019-03-19T08:41:11.966Z,5.80
2019-03-19T08:42:11.967Z,9.00
2019-03-19T08:43:11.953Z,7.00
2019-03-19T08:44:11.946Z,7.60
2019-03-19T08:45:11.937Z,7.00
2019-03-19T08:46:11.931Z,5.90
2019-03-19T08:47:11.919Z,5.60
2019-03-19T08:48:11.910Z,5.20
2019-03-19T08:49:11.903Z,6.70
2019-03-19T08:50:11.893Z,5.80
2019-03-19T08:51:11.887Z,5.60
2019-03-19T08:52:11.885Z,6.40
2019-03-19T08:53:11.881Z,6.90
2019-03-19T08:54:11.864Z,6.20
2019-03-19T08:55:11.859Z,5.10
2019-03-19T08:56:11.845Z,5.50
2019-03-19T08:57:11.835Z,4.60
2019-03-19T08:58:11.841Z,6.30
2019-03-19T08:59:11.829Z,5.90
2019-03-19T09:00:11.813Z,5.20
2019-03-19T09:01:11.803Z,5.60
2019-03-19T09:02:11.793Z,5.60
2019-03-19T09:03:11.802Z,5.20
2019-03-19T09:04:11.792Z,5.10
2019-03-19T09:05:11.776Z,5.60
2019-03-19T09:06:11.774Z,6.00
2019-03-19T09:07:11.756Z,5.80
2019-03-19T09:08:11.746Z,5.60
2019-03-19T09:09:11.741Z,5.60
2019-03-19T09:10:11.736Z,5.30
2019-03-19T09:11:11.733Z,5.60
2019-03-19T09:12:11.734Z,5.50
2019-03-19T09:13:11.705Z,6.10
2019-03-19T09:14:11.709Z,5.60
2019-03-19T09:15:11.697Z,5.40
2019-03-19T09:16:11.681Z,5.40
2019-03-19T09:17:11.678Z,4.90
2019-03-19T09:18:11.658Z,5.40
2019-03-19T09:19:11.654Z,5.50
2019-03-19T09:20:11.645Z,5.00
2019-03-19T09:21:11.642Z,5.10
2019-03-19T09:22:11.637Z,5.10
2019-03-19T09:23:11.626Z,5.50
2019-03-19T09:24:11.619Z,5.60
2019-03-19T09:25:11.619Z,5.30
2019-03-19T09:26:11.598Z,4.70
2019-03-19T09:27:11.584Z,4.90
2019-03-19T09:28:11.587Z,5.30
2019-03-19T09:29:16.758Z,5.00
2019-03-19T09:30:11.563Z,4.70
2019-03-19T09:31:11.555Z,4.10
2019-03-19T09:32:11.543Z,4.10
2019-03-19T09:33:11.535Z,4.10
2019-03-19T09:34:11.536Z,3.10
2019-03-19T09:35:11.526Z,3.80
2019-03-19T09:36:11.515Z,2.60
2019-03-19T09:37:11.511Z,2.90
2019-03-19T09:38:11.496Z,3.10
2019-03-19T09:39:11.488Z,2.80
2019-03-19T09:40:11.473Z,2.90
2019-03-19T09:41:11.470Z,3.20
2019-03-19T09:42:11.482Z,2.60
2019-03-19T09:43:11.454Z,2.90
2019-03-19T09:44:11.450Z,3.10
2019-03-19T09:45:11.432Z,3.70
2019-03-19T09:46:11.429Z,3.20
2019-03-19T09:47:11.428Z,3.20
2019-03-19T09:48:11.411Z,2.90
2019-03-19T09:49:11.407Z,3.60
2019-03-19T09:50:11.403Z,2.90
2019-03-19T09:51:11.385Z,2.80
2019-03-19T09:52:11.380Z,3.50
2019-03-19T09:53:11.373Z,3.00
2019-03-19T09:54:11.368Z,3.10
2019-03-19T09:55:11.362Z,3.30
2019-03-19T09:56:11.355Z,2.70
2019-03-19T09:57:13.587Z,2.90
2019-03-19T09:58:11.336Z,2.40
2019-03-19T09:59:11.327Z,2.30
2019-03-19T10:00:11.316Z,2.30
2019-03-19T10:01:11.323Z,2.40
2019-03-19T10:02:11.310Z,2.60
2019-03-19T10:03:11.294Z,3.30
2019-03-19T10:04:11.293Z,3.20
2019-03-19T10:05:11.286Z,3.10
2019-03-19T10:06:14.258Z,2.90
2019-03-19T10:07:11.275Z,3.00
2019-03-19T10:08:11.267Z,2.90
2019-03-19T10:09:11.262Z,2.80
2019-03-19T10:10:11.255Z,2.40
2019-03-19T10:11:11.280Z,2.70
2019-03-19T10:12:11.239Z,3.10
2019-03-19T10:13:11.244Z,2.50
2019-03-19T10:14:11.222Z,2.60
2019-03-19T10:15:11.221Z,2.40
2019-03-19T10:16:11.222Z,2.20
2019-03-19T10:17:11.203Z,2.70
2019-03-19T10:18:11.192Z,2.80
2019-03-19T10:19:11.183Z,2.60
2019-03-19T10:20:11.186Z,2.80
2019-03-19T10:21:11.181Z,2.70
2019-03-19T10:22:11.189Z,2.90
2019-03-19T10:23:11.164Z,2.90
2019-03-19T10:24:11.151Z,3.10
2019-03-19T10:25:11.155Z,3.00
2019-03-19T10:26:11.141Z,3.50
2019-03-19T10:27:11.139Z,2.90
2019-03-19T10:28:11.131Z,3.00
2019-03-19T10:29:11.121Z,2.90
2019-03-19T10:30:11.110Z,3.00
2019-03-19T10:31:11.100Z,2.90
2019-03-19T10:32:11.107Z,3.00
2019-03-19T10:33:11.094Z,2.50
2019-03-19T10:34:11.080Z,3.30
2019-03-19T10:35:12.790Z,3.00
2019-03-19T10:36:11.058Z,3.00
2019-03-19T10:37:11.066Z,2.60
2019-03-19T10:38:12.786Z,2.70
2019-03-19T10:39:11.039Z,2.80
2019-03-19T10:40:11.037Z,2.40
2019-03-19T10:41:12.794Z,2.50
2019-03-19T10:42:11.014Z,2.70
2019-03-19T10:43:14.791Z,2.50
2019-03-19T10:44:12.801Z,2.40
2019-03-19T10:45:11.002Z,2.90
2019-03-19T10:46:10.980Z,2.50
2019-03-19T10:47:10.980Z,2.40
2019-03-19T10:48:14.809Z,2.20
2019-03-19T10:49:10.957Z,2.60
2019-03-19T10:50:10.969Z,2.50
2019-03-19T10:51:10.956Z,2.90
2019-03-19T10:52:10.938Z,2.30
2019-03-19T10:53:12.798Z,3.00
2019-03-19T10:54:10.922Z,2.50
2019-03-19T10:55:10.922Z,2.70
2019-03-19T10:56:10.900Z,2.20
2019-03-19T10:57:10.964Z,2.80
2019-03-19T10:58:11.554Z,3.00
2019-03-19T10:59:10.881Z,3.10
2019-03-19T11:00:12.801Z,2.60
2019-03-19T11:01:11.864Z,2.70
2019-03-19T11:02:10.876Z,2.30
2019-03-19T11:03:10.876Z,2.80
2019-03-19T11:04:10.843Z,2.90
2019-03-19T11:05:10.840Z,2.80
2019-03-19T11:06:10.861Z,2.70
2019-03-19T11:07:11.815Z,2.80
2019-03-19T11:08:10.817Z,2.30
2019-03-19T11:09:10.811Z,2.60
2019-03-19T11:10:10.800Z,2.80
2019-03-19T11:11:12.356Z,3.10
2019-03-19T11:12:10.790Z,2.60
2019-03-19T11:13:10.783Z,2.80
2019-03-19T11:14:10.772Z,2.80
2019-03-19T11:15:10.768Z,2.60
2019-03-19T11:16:10.755Z,3.10
2019-03-19T11:17:10.754Z,2.70
2019-03-19T11:18:10.738Z,3.00
2019-03-19T11:19:10.732Z,2.60
2019-03-19T11:20:10.726Z,2.50
2019-03-19T11:21:10.717Z,2.60
2019-03-19T11:22:10.710Z,3.00
2019-03-19T11:23:10.702Z,2.80
2019-03-19T11:24:10.698Z,2.50
2019-03-19T11:25:10.691Z,2.90
2019-03-19T11:26:10.687Z,2.80
2019-03-19T11:27:10.670Z,2.90
2019-03-19T11:28:10.662Z,2.30
2019-03-19T11:29:10.667Z,2.40
2019-03-19T11:30:10.647Z,2.80
2019-03-19T11:31:10.650Z,2.40
2019-03-19T11:32:10.647Z,2.60
2019-03-19T11:33:10.630Z,2.90
2019-03-19T11:34:10.621Z,2.80
2019-03-19T11:35:10.620Z,2.90
2019-03-19T11:36:10.614Z,3.40
2019-03-19T11:37:10.608Z,2.30
2019-03-19T11:38:10.596Z,3.30
2019-03-19T11:39:10.584Z,2.50
2019-03-19T11:40:10.921Z,2.90
2019-03-19T11:41:10.575Z,2.50
2019-03-19T11:42:10.558Z,2.50
2019-03-19T11:43:10.559Z,2.20
2019-03-19T11:44:10.550Z,2.60
2019-03-19T11:45:10.541Z,2.80
2019-03-19T11:46:10.533Z,2.80
2019-03-19T11:47:10.521Z,2.50
2019-03-19T11:48:10.519Z,2.70
2019-03-19T11:49:10.531Z,3.00
2019-03-19T11:50:10.501Z,2.70
2019-03-19T11:51:10.497Z,3.50
2019-03-19T11:52:10.488Z,2.70
2019-03-19T11:53:10.479Z,2.40
2019-03-19T11:54:10.472Z,2.40
2019-03-19T11:55:10.481Z,2.00
2019-03-19T11:56:10.459Z,2.60
2019-03-19T11:57:10.452Z,2.50
2019-03-19T11:58:10.454Z,2.60
2019-03-19T11:59:10.432Z,2.80
2019-03-19T12:00:11.680Z,2.20
2019-03-19T12:01:10.426Z,2.70
2019-03-19T12:02:10.414Z,2.70
2019-03-19T12:03:15.171Z,2.40
2019-03-19T12:04:10.396Z,2.30
2019-03-19T12:05:10.406Z,2.30
2019-03-19T12:06:10.384Z,2.50
2019-03-19T12:07:10.372Z,2.40
2019-03-19T12:08:10.365Z,2.50
2019-03-19T12:09:10.370Z,2.30
2019-03-19T12:10:10.354Z,2.60
2019-03-19T12:11:10.347Z,2.40
2019-03-19T12:12:11.692Z,2.50
2019-03-19T12:13:10.332Z,2.70
2019-03-19T12:14:10.339Z,2.70
2019-03-19T12:15:10.317Z,2.40
2019-03-19T12:16:10.311Z,2.00
2019-03-19T12:17:10.303Z,2.50
2019-03-19T12:18:10.295Z,2.90
2019-03-19T12:19:10.284Z,2.70
2019-03-19T12:20:10.273Z,2.40
2019-03-19T12:21:10.272Z,2.50
2019-03-19T12:22:10.262Z,2.40
2019-03-19T12:23:10.266Z,2.80
2019-03-19T12:24:10.250Z,2.60
2019-03-19T12:25:10.241Z,2.50
2019-03-19T12:26:10.231Z,2.40
2019-03-19T12:27:10.230Z,2.00
2019-03-19T12:28:10.222Z,2.40
2019-03-19T12:29:10.226Z,2.40
2019-03-19T12:30:10.209Z,2.10
2019-03-19T12:31:10.198Z,2.60
2019-03-19T12:32:10.204Z,2.50
2019-03-19T12:33:10.190Z,2.80
2019-03-19T12:34:10.190Z,2.40
2019-03-19T12:35:10.171Z,2.60
2019-03-19T12:36:10.163Z,2.50
2019-03-19T12:37:10.168Z,2.50
2019-03-19T12:38:10.150Z,2.20
2019-03-19T12:39:10.142Z,2.40
2019-03-19T12:40:10.134Z,2.60
2019-03-19T12:41:10.132Z,2.40
2019-03-19T12:42:10.131Z,2.80
2019-03-19T12:43:10.112Z,2.70
2019-03-19T12:44:10.114Z,2.80
2019-03-19T12:45:10.097Z,2.60
2019-03-19T12:46:10.087Z,2.80
2019-03-19T12:47:10.088Z,2.90
2019-03-19T12:48:10.080Z,2.80
2019-03-19T12:49:10.093Z,2.80
2019-03-19T12:50:10.064Z,2.60
2019-03-19T12:51:10.052Z,2.30
2019-03-19T12:52:10.047Z,2.60
2019-03-19T12:53:10.053Z,2.60
2019-03-19T12:54:10.033Z,2.20
2019-03-19T12:55:10.026Z,2.80
2019-03-19T12:56:10.017Z,2.50
2019-03-19T12:57:10.019Z,2.70
2019-03-19T12:58:10.013Z,2.40
2019-03-19T12:59:19.824Z,2.50
2019-03-19T13:00:09.990Z,2.40
2019-03-19T13:01:10.035Z,2.30
2019-03-19T13:02:09.976Z,13.30
2019-03-19T13:03:09.970Z,6.80
2019-03-19T13:04:09.966Z,12.00
2019-03-19T13:05:09.958Z,3.50
2019-03-19T13:06:10.379Z,3.80
2019-03-19T13:07:10.026Z,3.40
2019-03-19T13:08:09.934Z,2.40
2019-03-19T13:09:09.932Z,2.70
2019-03-19T13:10:09.938Z,2.60
2019-03-19T13:11:09.910Z,5.40
2019-03-19T13:12:09.911Z,3.20
2019-03-19T13:13:09.908Z,4.00
2019-03-19T13:14:09.891Z,11.40
2019-03-19T13:15:09.884Z,13.20
2019-03-19T13:16:09.875Z,7.00
2019-03-19T13:17:09.888Z,3.60
2019-03-19T13:18:09.859Z,4.10